createdAt,value
2022-10-23T00:01:26.993Z,100591.88
2022-10-23T00:03:56.355Z,100598.09
2022-10-23T00:06:24.234Z,100605.31
2022-10-23T00:08:51.178Z,100608.44
2022-10-23T00:11:22.194Z,100610.13
2022-10-23T00:13:49.517Z,100619.22
2022-10-23T00:16:16.636Z,100614.88
2022-10-23T00:18:44.206Z,100625.44
2022-10-23T00:21:11.837Z,100632.03
2022-10-23T00:23:39.113Z,100626.94
2022-10-23T00:26:08.078Z,100630.13
2022-10-23T00:28:35.055Z,100622.12
2022-10-23T00:31:03.254Z,100624.78
2022-10-23T00:33:30.506Z,100626.66
2022-10-23T00:35:57.417Z,100636.13
2022-10-23T00:38:24.318Z,100635.78
2022-10-23T00:40:51.795Z,100650.19
2022-10-23T00:43:29.439Z,100645.78
2022-10-23T00:45:56.888Z,100654.13
2022-10-23T00:48:24.237Z,100652.97
2022-10-23T00:50:51.119Z,100660.50
2022-10-23T00:53:19.770Z,100669.06
2022-10-23T00:55:49.384Z,100677.37
2022-10-23T00:58:19.878Z,100666.09
2022-10-23T01:00:48.469Z,100676.63
2022-10-23T01:03:17.083Z,100674.31
2022-10-23T01:05:52.773Z,100675.06
2022-10-23T01:08:29.830Z,100676.09
2022-10-23T01:11:05.479Z,100680.22
2022-10-23T01:13:39.074Z,100688.97
2022-10-23T01:16:12.206Z,100673.28
2022-10-23T01:18:54.149Z,100681.28
2022-10-23T01:21:27.420Z,100674.63
2022-10-23T01:24:25.934Z,100680.81
2022-10-23T01:27:21.446Z,100678.19
2022-10-23T01:30:08.805Z,100681.59
2022-10-23T01:32:53.182Z,100690.84
2022-10-23T01:35:24.893Z,100681.66
2022-10-23T01:38:11.358Z,100683.12
2022-10-23T01:40:49.477Z,100678.03
2022-10-23T01:43:24.494Z,100672.78
2022-10-23T01:45:59.572Z,100673.84
2022-10-23T01:48:29.365Z,100677.56
2022-10-23T01:50:59.342Z,100678.38
2022-10-23T01:53:30.647Z,100669.22
2022-10-23T01:55:59.329Z,100678.50
2022-10-23T01:58:27.501Z,100677.75
2022-10-23T02:00:57.023Z,100671.75
2022-10-23T02:03:24.611Z,100668.28
2022-10-23T02:05:51.561Z,100671.78
2022-10-23T02:08:18.531Z,100663.44
2022-10-23T02:11:08.396Z,100659.62
2022-10-23T02:13:41.149Z,100657.09
2022-10-23T02:16:31.978Z,100665.56
2022-10-23T02:19:07.874Z,100671.03
2022-10-23T02:21:56.134Z,100679.69
2022-10-23T02:24:34.431Z,100674.44
2022-10-23T02:27:12.440Z,100672.59
2022-10-23T02:29:48.773Z,100684.19
2022-10-23T02:32:19.169Z,100679.94
2022-10-23T02:34:47.230Z,100681.47
2022-10-23T02:37:14.554Z,100682.94
2022-10-23T02:39:41.626Z,100688.84
2022-10-23T02:42:30.010Z,100685.47
2022-10-23T02:45:10.010Z,100696.84
2022-10-23T02:48:28.278Z,100702.41
2022-10-23T02:51:11.075Z,100708.75
2022-10-23T02:53:45.498Z,100704.28
2022-10-23T02:56:29.093Z,100705.63
2022-10-23T02:59:08.812Z,100704.28
2022-10-23T03:01:42.627Z,100710.06
2022-10-23T03:04:10.726Z,100702.69
2022-10-23T03:06:37.693Z,100713.09
2022-10-23T03:09:07.808Z,100715.00
2022-10-23T03:11:35.193Z,100713.78
2022-10-23T03:14:02.974Z,100722.34
2022-10-23T03:16:30.038Z,100717.25
2022-10-23T03:18:57.197Z,100728.66
2022-10-23T03:21:24.167Z,100732.19
2022-10-23T03:23:51.381Z,100729.13
2022-10-23T03:26:19.522Z,100736.47
2022-10-23T03:28:46.373Z,100729.81
2022-10-23T03:31:14.930Z,100728.22
2022-10-23T03:33:42.918Z,100732.63
2022-10-23T03:36:10.476Z,100718.44
2022-10-23T03:38:37.370Z,100724.00
2022-10-23T03:41:04.746Z,100728.72
2022-10-23T03:43:31.637Z,100723.25
2022-10-23T03:45:58.742Z,100717.59
2022-10-23T03:48:25.973Z,100722.47
2022-10-23T03:50:57.625Z,100729.34
2022-10-23T03:53:24.471Z,100725.09
2022-10-23T03:55:51.601Z,100728.13
2022-10-23T03:58:18.484Z,100732.34
2022-10-23T04:00:45.764Z,100727.94
2022-10-23T04:03:12.944Z,100728.87
2022-10-23T04:05:41.462Z,100730.84
2022-10-23T04:08:08.731Z,100731.53
2022-10-23T04:10:35.910Z,100735.47
2022-10-23T04:13:02.773Z,100733.91
2022-10-23T04:15:32.883Z,100717.56
2022-10-23T04:18:01.586Z,100721.50
2022-10-23T04:20:30.848Z,100718.87
2022-10-23T04:23:01.307Z,100731.09
2022-10-23T04:25:28.449Z,100727.50
2022-10-23T04:27:55.318Z,100728.56
2022-10-23T04:30:22.487Z,100730.25
2022-10-23T04:32:51.469Z,100744.88
2022-10-23T04:35:19.169Z,100745.47
2022-10-23T04:37:46.651Z,100745.63
2022-10-23T04:40:13.566Z,100743.09
2022-10-23T04:42:40.586Z,100735.78
2022-10-23T04:45:08.069Z,100742.81
2022-10-23T04:47:35.730Z,100733.59
2022-10-23T04:50:02.724Z,100744.41
2022-10-23T04:52:35.116Z,100744.94
2022-10-23T04:55:02.211Z,100739.53
2022-10-23T04:57:29.474Z,100750.03
2022-10-23T04:59:57.970Z,100751.53
2022-10-23T05:02:24.998Z,100749.16
2022-10-23T05:04:52.139Z,100747.66
2022-10-23T05:09:53.929Z,100752.00
2022-10-23T05:12:21.133Z,100755.28
2022-10-23T05:14:47.994Z,100753.16
2022-10-23T05:17:22.065Z,100751.44
2022-10-23T05:19:55.017Z,100748.44
2022-10-23T05:22:24.829Z,100748.09
2022-10-23T05:24:52.230Z,100762.06
2022-10-23T05:27:19.905Z,100755.97
2022-10-23T05:29:46.941Z,100754.28
2022-10-23T05:32:17.602Z,100746.56
2022-10-23T05:34:44.697Z,100753.44
2022-10-23T05:37:13.487Z,100755.03
2022-10-23T05:39:40.677Z,100758.31
2022-10-23T05:42:08.206Z,100760.84
2022-10-23T05:44:35.542Z,100763.84
2022-10-23T05:47:02.945Z,100770.03
2022-10-23T05:49:31.316Z,100759.44
2022-10-23T05:52:06.714Z,100763.06
2022-10-23T05:54:37.409Z,100769.25
2022-10-23T05:57:04.498Z,100764.72
2022-10-23T05:59:34.668Z,100762.37
2022-10-23T06:02:05.199Z,100772.78
2022-10-23T06:04:34.569Z,100776.06
2022-10-23T06:07:04.627Z,100793.25
2022-10-23T06:09:32.034Z,100789.72
2022-10-23T06:12:01.349Z,100786.56
2022-10-23T06:14:28.338Z,100785.44
2022-10-23T06:16:55.234Z,100782.31
2022-10-23T06:19:23.591Z,100779.69
2022-10-23T06:21:51.048Z,100785.75
2022-10-23T06:24:18.042Z,100795.75
2022-10-23T06:26:45.322Z,100795.66
2022-10-23T06:29:14.858Z,100809.50
2022-10-23T06:31:42.497Z,100821.06
2022-10-23T06:34:11.803Z,100824.91
2022-10-23T06:36:38.941Z,100826.69
2022-10-23T06:39:07.230Z,100835.12
2022-10-23T06:41:42.075Z,100840.28
2022-10-23T06:44:10.306Z,100844.28
2022-10-23T06:46:39.027Z,100843.31
2022-10-23T06:49:09.316Z,100841.75
2022-10-23T06:51:36.373Z,100843.63
2022-10-23T06:54:08.083Z,100834.31
2022-10-23T06:56:37.516Z,100845.06
2022-10-23T06:59:07.706Z,100842.50
2022-10-23T07:01:35.298Z,100844.56
2022-10-23T07:04:02.790Z,100852.31
2022-10-23T07:06:30.642Z,100846.13
2022-10-23T07:08:59.555Z,100849.31
2022-10-23T07:11:28.777Z,100848.91
2022-10-23T07:13:56.761Z,100846.16
2022-10-23T07:16:24.216Z,100855.25
2022-10-23T07:18:59.664Z,100851.41
2022-10-23T07:21:32.709Z,100853.09
2022-10-23T07:24:02.154Z,100852.12
2022-10-23T07:26:30.080Z,100853.31
2022-10-23T07:28:57.548Z,100857.56
2022-10-23T07:31:28.142Z,100855.75
2022-10-23T07:34:11.034Z,100837.66
2022-10-23T07:36:38.323Z,100838.09
2022-10-23T07:39:06.023Z,100830.88
2022-10-23T07:41:33.207Z,100832.97
2022-10-23T07:44:00.545Z,100837.69
2022-10-23T07:46:27.825Z,100837.16
2022-10-23T07:48:54.733Z,100842.69
2022-10-23T07:51:22.123Z,100844.06
2022-10-23T07:53:49.433Z,100841.66
2022-10-23T07:56:21.398Z,100843.41
2022-10-23T07:58:55.899Z,100836.00
2022-10-23T08:01:34.292Z,100836.72
2022-10-23T08:04:01.676Z,100833.06
2022-10-23T08:06:29.611Z,100831.69
2022-10-23T08:08:59.078Z,100827.53
2022-10-23T08:11:30.971Z,100825.22
2022-10-23T08:13:58.543Z,100821.88
2022-10-23T08:16:25.784Z,100837.00
2022-10-23T08:18:58.007Z,100845.69
2022-10-23T08:21:24.931Z,100840.50
2022-10-23T08:23:59.292Z,100842.59
2022-10-23T08:26:29.448Z,100844.56
2022-10-23T08:28:58.845Z,100840.91
2022-10-23T08:31:26.205Z,100844.34
2022-10-23T08:33:54.882Z,100840.06
2022-10-23T08:36:26.430Z,100845.81
2022-10-23T08:38:55.101Z,100836.16
2022-10-23T08:41:25.129Z,100839.72
2022-10-23T08:44:07.550Z,100840.09
2022-10-23T08:46:38.650Z,100828.28
2022-10-23T08:49:24.746Z,100831.31
2022-10-23T08:51:55.986Z,100839.19
2022-10-23T08:55:00.479Z,100825.88
2022-10-23T08:57:34.520Z,100827.84
2022-10-23T09:00:06.197Z,100824.81
2022-10-23T09:06:08.930Z,100815.72
2022-10-23T09:09:03.922Z,100828.31
2022-10-23T09:11:46.830Z,100825.38
2022-10-23T09:14:32.786Z,100829.72
2022-10-23T09:17:11.048Z,100844.66
2022-10-23T09:19:38.238Z,100847.66
2022-10-23T09:22:05.574Z,100845.72
2022-10-23T09:24:36.459Z,100853.78
2022-10-23T09:29:36.123Z,100852.09
2022-10-23T09:32:06.815Z,100856.03
2022-10-23T09:34:35.022Z,100860.41
2022-10-23T09:37:05.023Z,100851.72
2022-10-23T09:39:36.076Z,100845.56
2022-10-23T09:42:26.185Z,100851.00
2022-10-23T09:44:54.620Z,100857.63
2022-10-23T09:47:24.431Z,100857.53
2022-10-23T09:49:53.700Z,100851.22
2022-10-23T09:52:35.411Z,100844.69
2022-10-23T09:55:14.895Z,100850.94
2022-10-23T09:57:43.822Z,100835.94
2022-10-23T10:00:26.514Z,100840.22
2022-10-23T10:03:04.963Z,100842.19
2022-10-23T10:05:37.862Z,100836.91
2022-10-23T10:08:20.673Z,100839.47
2022-10-23T10:10:58.194Z,100843.47
2022-10-23T10:13:45.340Z,100847.31
2022-10-23T10:19:19.210Z,100842.16
2022-10-23T10:21:51.932Z,100821.88
2022-10-23T10:24:23.282Z,100832.59
2022-10-23T10:27:35.268Z,100838.03
2022-10-23T10:30:19.785Z,100825.44
2022-10-23T10:32:59.070Z,100822.63
2022-10-23T10:35:56.958Z,100818.19
2022-10-23T10:38:35.490Z,100813.44
2022-10-23T10:41:23.596Z,100818.34
2022-10-23T10:44:05.473Z,100807.94
2022-10-23T10:46:42.317Z,100800.84
2022-10-23T10:49:24.455Z,100794.00
2022-10-23T10:52:10.030Z,100782.19
2022-10-23T10:54:45.819Z,100770.16
2022-10-23T10:57:29.324Z,100774.34
2022-10-23T10:59:59.206Z,100762.91
2022-10-23T11:02:29.501Z,100760.94
2022-10-23T11:05:10.734Z,100765.22
2022-10-23T11:07:43.100Z,100759.72
2022-10-23T11:10:16.598Z,100753.50
2022-10-23T11:12:45.857Z,100751.84
2022-10-23T11:15:29.376Z,100755.41
2022-10-23T11:18:13.130Z,100748.41
2022-10-23T11:20:58.767Z,100753.91
2022-10-23T11:23:48.328Z,100749.22
2022-10-23T11:26:46.781Z,100756.22
2022-10-23T11:29:42.603Z,100761.88
2022-10-23T11:32:25.537Z,100756.41
2022-10-23T11:35:14.305Z,100767.38
2022-10-23T11:37:41.372Z,100762.63
2022-10-23T11:40:08.545Z,100756.38
2022-10-23T11:42:41.766Z,100757.28
2022-10-23T11:45:28.966Z,100756.06
2022-10-23T11:48:14.844Z,100739.22
2022-10-23T11:50:44.741Z,100738.84
2022-10-23T11:53:33.399Z,100742.34
2022-10-23T11:56:04.705Z,100734.25
2022-10-23T11:58:45.895Z,100730.38
2022-10-23T12:01:31.875Z,100730.53
2022-10-23T12:04:03.184Z,100725.75
2022-10-23T12:06:33.219Z,100722.97
2022-10-23T12:09:08.855Z,100726.19
2022-10-23T12:11:46.437Z,100717.56
2022-10-23T12:14:28.607Z,100707.38
2022-10-23T12:16:55.766Z,100715.84
2022-10-23T12:19:25.905Z,100710.63
2022-10-23T12:21:54.532Z,100709.66
2022-10-23T12:24:39.744Z,100706.84
2022-10-23T12:27:41.417Z,100696.03
2022-10-23T12:30:19.981Z,100691.97
2022-10-23T12:33:22.929Z,100691.91
2022-10-23T12:36:04.654Z,100686.41
2022-10-23T12:38:35.316Z,100684.94
2022-10-23T12:41:11.337Z,100686.00
2022-10-23T12:43:38.767Z,100668.94
2022-10-23T12:46:37.001Z,100669.34
2022-10-23T12:49:13.595Z,100671.47
2022-10-23T12:51:40.481Z,100675.41
2022-10-23T12:54:21.587Z,100675.31
2022-10-23T12:56:49.076Z,100674.47
2022-10-23T12:59:18.725Z,100662.78
2022-10-23T13:01:48.071Z,100657.84
2022-10-23T13:04:38.643Z,100658.06
2022-10-23T13:07:05.558Z,100654.97
2022-10-23T13:09:39.343Z,100654.03
2022-10-23T13:12:08.381Z,100656.59
2022-10-23T13:14:38.228Z,100647.59
2022-10-23T13:17:09.459Z,100647.06
2022-10-23T13:19:37.617Z,100646.41
2022-10-23T13:22:21.241Z,100639.06
2022-10-23T13:24:55.081Z,100638.22
2022-10-23T13:27:30.989Z,100635.72
2022-10-23T13:29:58.130Z,100627.75
2022-10-23T13:32:28.815Z,100630.47
2022-10-23T13:35:04.049Z,100628.75
2022-10-23T13:37:37.682Z,100623.31
2022-10-23T13:40:09.716Z,100618.16
2022-10-23T13:42:36.816Z,100621.13
2022-10-23T13:45:04.195Z,100617.53
2022-10-23T13:47:31.184Z,100616.06
2022-10-23T13:49:58.074Z,100619.50
2022-10-23T13:52:25.266Z,100613.09
2022-10-23T13:54:52.166Z,100609.94
2022-10-23T13:57:19.041Z,100606.13
2022-10-23T13:59:46.157Z,100597.28
2022-10-23T14:02:20.346Z,100596.16
2022-10-23T14:04:48.779Z,100596.87
2022-10-23T14:07:15.841Z,100602.72
2022-10-23T14:09:42.740Z,100604.66
2022-10-23T14:12:09.972Z,100591.75
2022-10-23T14:14:36.909Z,100589.37
2022-10-23T14:17:06.804Z,100580.16
2022-10-23T14:19:34.451Z,100582.09
2022-10-23T14:22:04.503Z,100581.34
2022-10-23T14:24:34.149Z,100584.62
2022-10-23T14:27:04.630Z,100579.63
2022-10-23T14:29:34.346Z,100579.41
2022-10-23T14:32:04.318Z,100574.66
2022-10-23T14:34:31.271Z,100565.66
2022-10-23T14:37:08.083Z,100569.41
2022-10-23T14:39:35.928Z,100564.06
2022-10-23T14:42:02.783Z,100559.06
2022-10-23T14:44:29.726Z,100548.69
2022-10-23T14:47:01.941Z,100549.78
2022-10-23T14:49:29.078Z,100545.41
2022-10-23T14:51:56.209Z,100543.97
2022-10-23T14:54:23.099Z,100544.22
2022-10-23T14:56:50.008Z,100547.56
2022-10-23T14:59:17.147Z,100541.91
2022-10-23T15:01:48.053Z,100541.03
2022-10-23T15:04:15.623Z,100542.53
2022-10-23T15:06:43.434Z,100543.47
2022-10-23T15:09:10.340Z,100531.97
2022-10-23T15:11:37.299Z,100522.31
2022-10-23T15:14:04.491Z,100514.31
2022-10-23T15:16:31.641Z,100511.94
2022-10-23T15:18:58.510Z,100505.41
2022-10-23T15:21:25.650Z,100504.41
2022-10-23T15:23:54.785Z,100511.56
2022-10-23T15:26:23.075Z,100516.22
2022-10-23T15:28:55.190Z,100517.88
2022-10-23T15:31:43.299Z,100524.38
2022-10-23T15:34:12.894Z,100512.56
2022-10-23T15:36:40.087Z,100518.72
2022-10-23T15:39:09.146Z,100522.72
2022-10-23T15:41:37.987Z,100516.41
2022-10-23T15:44:06.413Z,100527.75
2022-10-23T15:46:33.506Z,100540.62
2022-10-23T15:49:00.824Z,100544.53
2022-10-23T15:51:27.767Z,100551.84
2022-10-23T15:53:54.659Z,100550.84
2022-10-23T15:56:21.753Z,100545.59
2022-10-23T15:58:48.589Z,100539.59
2022-10-23T16:01:15.662Z,100530.97
2022-10-23T16:03:42.992Z,100524.59
2022-10-23T16:06:12.481Z,100517.44
2022-10-23T16:08:39.870Z,100525.66
2022-10-23T16:11:15.570Z,100529.38
2022-10-23T16:13:43.609Z,100529.22
2022-10-23T16:16:11.142Z,100531.41
2022-10-23T16:18:38.332Z,100532.03
2022-10-23T16:21:05.406Z,100541.31
2022-10-23T16:23:33.537Z,100551.63
2022-10-23T16:26:04.934Z,100554.19
2022-10-23T16:28:32.141Z,100555.19
2022-10-23T16:30:59.161Z,100555.78
2022-10-23T16:33:26.129Z,100566.66
2022-10-23T16:35:53.247Z,100551.75
2022-10-23T16:38:21.441Z,100550.31
2022-10-23T16:40:52.835Z,100555.72
2022-10-23T16:43:24.136Z,100544.75
2022-10-23T16:46:14.050Z,100546.66
2022-10-23T16:48:41.976Z,100556.47
2022-10-23T16:51:11.306Z,100561.56
2022-10-23T16:53:39.012Z,100573.59
2022-10-23T16:56:08.009Z,100583.19
2022-10-23T16:58:35.176Z,100576.72
2022-10-23T17:01:07.529Z,100576.47
2022-10-23T17:03:36.740Z,100574.12
2022-10-23T17:06:07.373Z,100579.87
2022-10-23T17:08:37.542Z,100575.97
2022-10-23T17:11:12.259Z,100576.81
2022-10-23T17:13:45.034Z,100580.16
2022-10-23T17:16:14.567Z,100579.22
2022-10-23T17:18:44.025Z,100573.47
2022-10-23T17:21:14.774Z,100577.22
2022-10-23T17:23:41.925Z,100572.72
2022-10-23T17:26:10.847Z,100575.66
2022-10-23T17:28:40.473Z,100586.47
2022-10-23T17:31:19.294Z,100583.53
2022-10-23T17:33:46.735Z,100580.47
2022-10-23T17:36:15.595Z,100575.16
2022-10-23T17:38:46.025Z,100578.66
2022-10-23T17:41:14.654Z,100571.66
2022-10-23T17:43:42.478Z,100566.44
2022-10-23T17:46:10.227Z,100554.28
2022-10-23T17:48:39.285Z,100556.50
2022-10-23T17:51:19.198Z,100551.44
2022-10-23T17:53:48.813Z,100543.69
2022-10-23T17:56:29.539Z,100552.25
2022-10-23T17:59:00.821Z,100555.81
2022-10-23T18:01:29.419Z,100555.34
2022-10-23T18:03:59.357Z,100542.78
2022-10-23T18:06:29.807Z,100549.31
2022-10-23T18:08:57.142Z,100547.78
2022-10-23T18:11:26.661Z,100543.47
2022-10-23T18:13:54.367Z,100549.31
2022-10-23T18:16:21.547Z,100553.34
2022-10-23T18:18:48.853Z,100550.50
2022-10-23T18:21:16.813Z,100548.91
2022-10-23T18:23:44.353Z,100538.91
2022-10-23T18:26:24.069Z,100543.34
2022-10-23T18:28:53.082Z,100546.22
2022-10-23T18:31:20.853Z,100551.16
2022-10-23T18:33:47.878Z,100557.44
2022-10-23T18:36:23.941Z,100557.28
2022-10-23T18:38:51.252Z,100553.03
2022-10-23T18:41:19.130Z,100549.31
2022-10-23T18:43:46.449Z,100551.47
2022-10-23T18:46:13.874Z,100542.00
2022-10-23T18:48:41.791Z,100543.94
2022-10-23T18:51:23.777Z,100550.38
2022-10-23T18:53:51.392Z,100550.25
2022-10-23T18:56:24.199Z,100552.41
2022-10-23T18:58:55.684Z,100547.41
2022-10-23T19:01:24.110Z,100543.34
2022-10-23T19:03:51.589Z,100543.69
2022-10-23T19:06:20.054Z,100537.53
2022-10-23T19:08:47.079Z,100545.47
2022-10-23T19:11:15.916Z,100538.81
2022-10-23T19:13:43.075Z,100532.72
2022-10-23T19:16:14.507Z,100532.47
2022-10-23T19:18:45.579Z,100528.41
2022-10-23T19:21:12.831Z,100540.31
2022-10-23T19:23:41.145Z,100541.28
2022-10-23T19:26:11.862Z,100544.88
2022-10-23T19:28:42.968Z,100548.41
2022-10-23T19:31:10.730Z,100550.91
2022-10-23T19:33:38.986Z,100550.09
2022-10-23T19:36:11.235Z,100538.87
2022-10-23T19:38:41.978Z,100547.28
2022-10-23T19:41:08.898Z,100547.28
2022-10-23T19:43:37.695Z,100550.09
2022-10-23T19:46:09.262Z,100547.19
2022-10-23T19:48:42.395Z,100551.53
2022-10-23T19:51:09.795Z,100559.50
2022-10-23T19:53:36.682Z,100560.75
2022-10-23T19:56:05.315Z,100562.41
2022-10-23T19:58:32.474Z,100560.28
2022-10-23T20:00:59.567Z,100549.91
2022-10-23T20:03:26.802Z,100548.91
2022-10-23T20:05:53.680Z,100548.09
2022-10-23T20:08:20.517Z,100550.66
2022-10-23T20:10:48.021Z,100546.47
2022-10-23T20:13:19.827Z,100547.84
2022-10-23T20:15:47.509Z,100552.63
2022-10-23T20:18:14.360Z,100552.50
2022-10-23T20:20:42.006Z,100552.50
2022-10-23T20:23:09.208Z,100540.88
2022-10-23T20:25:36.100Z,100543.13
2022-10-23T20:28:03.510Z,100543.53
2022-10-23T20:30:30.858Z,100538.37
2022-10-23T20:32:57.870Z,100544.84
2022-10-23T20:35:24.718Z,100541.78
2022-10-23T20:37:51.871Z,100531.16
2022-10-23T20:40:18.719Z,100537.00
2022-10-23T20:42:45.584Z,100531.97
2022-10-23T20:45:12.696Z,100519.13
2022-10-23T20:47:39.818Z,100526.66
2022-10-23T20:50:08.521Z,100511.41
2022-10-23T20:52:35.645Z,100506.94
2022-10-23T20:55:02.498Z,100498.97
2022-10-23T20:57:29.394Z,100506.25
2022-10-23T20:59:56.509Z,100512.56
2022-10-23T21:02:23.432Z,100517.44
2022-10-23T21:04:50.500Z,100523.31
2022-10-23T21:07:18.201Z,100528.63
2022-10-23T21:09:45.085Z,100521.63
2022-10-23T21:12:12.013Z,100516.47
2022-10-23T21:14:39.154Z,100516.47
2022-10-23T21:17:06.243Z,100509.72
2022-10-23T21:19:36.622Z,100510.69
2022-10-23T21:22:06.848Z,100512.94
2022-10-23T21:24:33.689Z,100511.53
2022-10-23T21:27:00.521Z,100510.16
2022-10-23T21:29:29.414Z,100503.28
2022-10-23T21:31:58.501Z,100511.28
2022-10-23T21:34:26.091Z,100509.91
2022-10-23T21:37:12.324Z,100503.44
2022-10-23T21:39:41.524Z,100499.28
2022-10-23T21:42:08.817Z,100501.22
2022-10-23T21:44:35.688Z,100501.34
2022-10-23T21:47:05.671Z,100504.38
2022-10-23T21:49:35.607Z,100500.34
2022-10-23T21:52:05.431Z,100509.72
2022-10-23T21:54:35.294Z,100503.56
2022-10-23T21:57:03.426Z,100501.47
2022-10-23T21:59:33.100Z,100507.50
2022-10-23T22:02:05.537Z,100500.06
2022-10-23T22:04:35.897Z,100492.41
2022-10-23T22:07:06.550Z,100495.06
2022-10-23T22:09:36.673Z,100510.28
2022-10-23T22:12:07.067Z,100517.16
2022-10-23T22:14:39.040Z,100511.53
2022-10-23T22:17:06.311Z,100509.88
2022-10-23T22:19:33.162Z,100497.87
2022-10-23T22:22:00.297Z,100496.75
2022-10-23T22:24:27.467Z,100504.75
2022-10-23T22:26:56.282Z,100504.34
2022-10-23T22:29:26.360Z,100501.22
2022-10-23T22:31:53.308Z,100496.47
2022-10-23T22:34:47.796Z,100503.91
2022-10-23T22:37:12.920Z,100508.56
2022-10-23T22:39:40.278Z,100508.44
2022-10-23T22:42:07.580Z,100510.53
2022-10-23T22:44:34.718Z,100501.87
2022-10-23T22:47:03.864Z,100507.47
2022-10-23T22:49:30.744Z,100499.34
2022-10-23T22:52:00.359Z,100504.41
2022-10-23T22:54:27.252Z,100504.66
2022-10-23T22:56:54.110Z,100506.75
2022-10-23T22:59:21.209Z,100500.06
2022-10-23T23:01:49.075Z,100491.97
2022-10-23T23:04:39.515Z,100490.41
2022-10-23T23:07:09.941Z,100483.72
2022-10-23T23:09:42.181Z,100478.16
2022-10-23T23:12:11.082Z,100475.59
2022-10-23T23:14:38.464Z,100484.41
2022-10-23T23:17:05.657Z,100479.41
2022-10-23T23:19:33.058Z,100483.75
2022-10-23T23:22:00.029Z,100482.59
2022-10-23T23:24:27.030Z,100486.50
2022-10-23T23:26:54.141Z,100479.25
2022-10-23T23:29:21.659Z,100481.47
2022-10-23T23:31:48.522Z,100481.19
2022-10-23T23:34:15.673Z,100478.69
2022-10-23T23:36:42.521Z,100472.41
2022-10-23T23:39:10.394Z,100474.78
2022-10-23T23:41:37.854Z,100468.91
2022-10-23T23:44:04.790Z,100472.81
2022-10-23T23:46:31.638Z,100474.22
2022-10-23T23:48:58.745Z,100472.28
2022-10-23T23:51:26.292Z,100479.25
2022-10-23T23:53:53.193Z,100476.75
2022-10-23T23:56:20.721Z,100475.06
2022-10-23T23:58:47.613Z,100475.06
